Terminal Aerodrome Forecast
Issued by NWS Sterling, VA

Current Version | Previous Version | Text Only | Print | Product List | Glossary Off
Versions: 1 2 3 4 5 6 7 8 9 10 11 12 13 14 15 16 17 18 19 20 21 22 23 24 25 26 27

000
FTUS41 KLWX 211500 AAA
TAFDCA
TAF AMD
KDCA 211503Z 2115/2212 12003KT P6SM SCT025 OVC050
     FM211800 14007KT P6SM SCT025 OVC050
     FM220700 VRB03KT P6SM BKN090=

USA.gov is the U.S. government's official web portal to all federal, state and local government web resources and services.